Terminal Aerodrome Forecast
Issued by NWS

Home | Current Version | Previous Version | Text Only | Print | Product List | Glossary On
Versions: 1 2 3 4 5 6 7 8 9 10 11 12 13 14 15 16 17 18 19 20 21 22
096
FTUS41 KBTV 280309 AAC
TAFSLK
TAF AMD
KSLK 280309Z 2803/2824 00000KT 1/4SM FG VV001
      TEMPO 2803/2806 6SM BR FEW001
     FM280700 00000KT 2SM BR SCT003
      TEMPO 2807/2811 1/4SM FG VV001
     FM281300 21004KT P6SM FEW040
     FM281800 19006KT P6SM SCT045=

USA.gov is the U.S. government's official web portal to all federal, state and local government web resources and services.